sensor_id;sensor_type;location;lat;lon;timestamp;temperature;humidity
563;DHT22;266;49.514;8.294;2024-02-04T00:00:47;10.30;99.90
563;DHT22;266;49.514;8.294;2024-02-04T00:03:15;10.20;99.90
563;DHT22;266;49.514;8.294;2024-02-04T00:05:43;10.20;99.90
563;DHT22;266;49.514;8.294;2024-02-04T00:08:12;10.20;99.90
563;DHT22;266;49.514;8.294;2024-02-04T00:10:43;10.20;99.90
563;DHT22;266;49.514;8.294;2024-02-04T00:13:11;10.20;99.90
563;DHT22;266;49.514;8.294;2024-02-04T00:15:39;10.20;99.90
563;DHT22;266;49.514;8.294;2024-02-04T00:18:09;10.20;99.90
563;DHT22;266;49.514;8.294;2024-02-04T00:20:37;10.20;99.90
563;DHT22;266;49.514;8.294;2024-02-04T00:23:05;10.20;99.90
563;DHT22;266;49.514;8.294;2024-02-04T00:25:33;10.20;99.90
563;DHT22;266;49.514;8.294;2024-02-04T00:28:00;10.30;99.90
563;DHT22;266;49.514;8.294;2024-02-04T00:30:28;10.30;99.90
563;DHT22;266;49.514;8.294;2024-02-04T00:32:57;10.30;99.90
563;DHT22;266;49.514;8.294;2024-02-04T00:35:33;10.30;99.90
563;DHT22;266;49.514;8.294;2024-02-04T00:38:03;10.30;99.90
563;DHT22;266;49.514;8.294;2024-02-04T00:40:31;10.20;99.90
563;DHT22;266;49.514;8.294;2024-02-04T00:43:04;10.20;99.90
563;DHT22;266;49.514;8.294;2024-02-04T00:45:32;10.20;99.90
563;DHT22;266;49.514;8.294;2024-02-04T00:48:00;10.20;99.90
563;DHT22;266;49.514;8.294;2024-02-04T00:50:28;10.30;99.90
563;DHT22;266;49.514;8.294;2024-02-04T00:52:58;10.20;99.90
563;DHT22;266;49.514;8.294;2024-02-04T00:55:26;10.20;99.90
563;DHT22;266;49.514;8.294;2024-02-04T00:57:54;10.20;99.90
563;DHT22;266;49.514;8.294;2024-02-04T01:00:25;10.20;99.90
563;DHT22;266;49.514;8.294;2024-02-04T01:02:53;10.20;99.90
563;DHT22;266;49.514;8.294;2024-02-04T01:05:21;10.20;99.90
563;DHT22;266;49.514;8.294;2024-02-04T01:07:49;10.20;99.90
563;DHT22;266;49.514;8.294;2024-02-04T01:10:19;10.20;99.90
563;DHT22;266;49.514;8.294;2024-02-04T01:12:47;10.30;99.90
563;DHT22;266;49.514;8.294;2024-02-04T01:15:15;10.20;99.90
563;DHT22;266;49.514;8.294;2024-02-04T01:17:43;10.20;99.90
563;DHT22;266;49.514;8.294;2024-02-04T01:20:11;10.20;99.90
563;DHT22;266;49.514;8.294;2024-02-04T01:22:39;10.30;99.90
563;DHT22;266;49.514;8.294;2024-02-04T01:25:07;10.20;99.90
563;DHT22;266;49.514;8.294;2024-02-04T01:27:37;10.10;99.90
563;DHT22;266;49.514;8.294;2024-02-04T01:30:06;10.10;99.90
563;DHT22;266;49.514;8.294;2024-02-04T01:32:34;10.10;99.90
563;DHT22;266;49.514;8.294;2024-02-04T01:35:02;10.10;99.90
563;DHT22;266;49.514;8.294;2024-02-04T01:37:30;10.10;99.90
563;DHT22;266;49.514;8.294;2024-02-04T01:39:58;10.10;99.90
563;DHT22;266;49.514;8.294;2024-02-04T01:42:27;10.10;99.90
563;DHT22;266;49.514;8.294;2024-02-04T01:44:56;10.00;99.90
563;DHT22;266;49.514;8.294;2024-02-04T01:47:24;10.00;99.90
563;DHT22;266;49.514;8.294;2024-02-04T01:49:52;10.00;99.90
563;DHT22;266;49.514;8.294;2024-02-04T01:52:20;10.00;99.90
563;DHT22;266;49.514;8.294;2024-02-04T01:54:49;10.00;99.90
563;DHT22;266;49.514;8.294;2024-02-04T01:57:18;10.00;99.90
563;DHT22;266;49.514;8.294;2024-02-04T01:59:47;10.00;99.90
563;DHT22;266;49.514;8.294;2024-02-04T02:02:20;10.00;99.90
563;DHT22;266;49.514;8.294;2024-02-04T02:04:48;10.00;99.90
563;DHT22;266;49.514;8.294;2024-02-04T02:07:16;10.00;99.90
563;DHT22;266;49.514;8.294;2024-02-04T02:09:47;10.00;99.90
563;DHT22;266;49.514;8.294;2024-02-04T02:12:19;10.00;99.90
563;DHT22;266;49.514;8.294;2024-02-04T02:14:56;10.00;99.90
563;DHT22;266;49.514;8.294;2024-02-04T02:17:35;10.00;99.90
563;DHT22;266;49.514;8.294;2024-02-04T02:20:10;9.90;99.90
563;DHT22;266;49.514;8.294;2024-02-04T02:22:47;10.00;99.90
563;DHT22;266;49.514;8.294;2024-02-04T02:25:19;9.90;99.90
563;DHT22;266;49.514;8.294;2024-02-04T02:27:48;10.00;99.90
563;DHT22;266;49.514;8.294;2024-02-04T02:30:17;10.00;99.90
563;DHT22;266;49.514;8.294;2024-02-04T02:32:46;10.00;99.90
563;DHT22;266;49.514;8.294;2024-02-04T02:35:15;10.00;99.90
563;DHT22;266;49.514;8.294;2024-02-04T02:37:46;10.00;99.90
563;DHT22;266;49.514;8.294;2024-02-04T02:40:22;10.00;99.90
563;DHT22;266;49.514;8.294;2024-02-04T02:42:52;10.00;99.90
563;DHT22;266;49.514;8.294;2024-02-04T02:45:21;10.00;99.90
563;DHT22;266;49.514;8.294;2024-02-04T02:47:54;10.00;99.90
563;DHT22;266;49.514;8.294;2024-02-04T02:50:22;10.00;99.90
563;DHT22;266;49.514;8.294;2024-02-04T02:52:51;10.00;99.90
563;DHT22;266;49.514;8.294;2024-02-04T02:55:20;10.00;99.90
563;DHT22;266;49.514;8.294;2024-02-04T02:57:48;10.00;99.90
563;DHT22;266;49.514;8.294;2024-02-04T03:00:17;10.00;99.90
563;DHT22;266;49.514;8.294;2024-02-04T03:02:45;10.00;99.90
563;DHT22;266;49.514;8.294;2024-02-04T03:05:13;10.00;99.90
563;DHT22;266;49.514;8.294;2024-02-04T03:07:42;10.00;99.90
563;DHT22;266;49.514;8.294;2024-02-04T03:10:10;10.00;99.90
563;DHT22;266;49.514;8.294;2024-02-04T03:12:40;10.00;99.90
563;DHT22;266;49.514;8.294;2024-02-04T03:15:08;10.00;99.90
563;DHT22;266;49.514;8.294;2024-02-04T03:17:36;10.00;99.90
563;DHT22;266;49.514;8.294;2024-02-04T03:20:05;10.00;99.90
563;DHT22;266;49.514;8.294;2024-02-04T03:22:33;10.00;99.90
563;DHT22;266;49.514;8.294;2024-02-04T03:25:01;10.00;99.90
563;DHT22;266;49.514;8.294;2024-02-04T03:27:29;10.00;99.90
563;DHT22;266;49.514;8.294;2024-02-04T03:29:59;10.00;99.90
563;DHT22;266;49.514;8.294;2024-02-04T03:32:28;10.00;99.90
563;DHT22;266;49.514;8.294;2024-02-04T03:35:00;10.00;99.90
563;DHT22;266;49.514;8.294;2024-02-04T03:37:29;10.00;99.90
563;DHT22;266;49.514;8.294;2024-02-04T03:39:57;9.90;99.90
563;DHT22;266;49.514;8.294;2024-02-04T03:42:25;9.90;99.90
563;DHT22;266;49.514;8.294;2024-02-04T03:44:53;9.90;99.90
563;DHT22;266;49.514;8.294;2024-02-04T03:47:23;9.90;99.90
563;DHT22;266;49.514;8.294;2024-02-04T03:49:51;9.90;99.90
563;DHT22;266;49.514;8.294;2024-02-04T03:52:19;10.00;99.90
563;DHT22;266;49.514;8.294;2024-02-04T03:54:47;9.90;99.90
563;DHT22;266;49.514;8.294;2024-02-04T03:57:15;9.90;99.90
563;DHT22;266;49.514;8.294;2024-02-04T03:59:44;9.90;99.90
563;DHT22;266;49.514;8.294;2024-02-04T04:02:13;10.00;99.90
563;DHT22;266;49.514;8.294;2024-02-04T04:04:42;9.90;99.90
563;DHT22;266;49.514;8.294;2024-02-04T04:07:14;9.90;99.90
563;DHT22;266;49.514;8.294;2024-02-04T04:09:43;9.90;99.90
563;DHT22;266;49.514;8.294;2024-02-04T04:12:11;9.80;99.90
563;DHT22;266;49.514;8.294;2024-02-04T04:14:39;9.90;99.90
563;DHT22;266;49.514;8.294;2024-02-04T04:17:07;9.90;99.90
563;DHT22;266;49.514;8.294;2024-02-04T04:19:35;9.90;99.90
563;DHT22;266;49.514;8.294;2024-02-04T04:22:05;9.90;99.90
563;DHT22;266;49.514;8.294;2024-02-04T04:24:33;9.90;99.90
563;DHT22;266;49.514;8.294;2024-02-04T04:27:01;9.80;99.90
563;DHT22;266;49.514;8.294;2024-02-04T04:29:29;9.80;99.90
563;DHT22;266;49.514;8.294;2024-02-04T04:31:57;9.90;99.90
563;DHT22;266;49.514;8.294;2024-02-04T04:34:25;9.80;99.90
563;DHT22;266;49.514;8.294;2024-02-04T04:36:53;9.80;99.90
563;DHT22;266;49.514;8.294;2024-02-04T04:39:23;9.80;99.90
563;DHT22;266;49.514;8.294;2024-02-04T04:41:51;9.70;99.90
563;DHT22;266;49.514;8.294;2024-02-04T04:44:19;9.70;99.90
563;DHT22;266;49.514;8.294;2024-02-04T04:46:47;9.70;99.90
563;DHT22;266;49.514;8.294;2024-02-04T04:49:15;9.70;99.90
563;DHT22;266;49.514;8.294;2024-02-04T04:51:44;9.80;99.90
563;DHT22;266;49.514;8.294;2024-02-04T04:54:15;9.80;99.90
563;DHT22;266;49.514;8.294;2024-02-04T04:56:44;9.80;99.90
563;DHT22;266;49.514;8.294;2024-02-04T04:59:12;9.80;99.90
563;DHT22;266;49.514;8.294;2024-02-04T05:01:45;9.80;99.90
563;DHT22;266;49.514;8.294;2024-02-04T05:04:13;9.80;99.90
563;DHT22;266;49.514;8.294;2024-02-04T05:06:41;9.80;99.90
563;DHT22;266;49.514;8.294;2024-02-04T05:09:10;9.80;99.90
563;DHT22;266;49.514;8.294;2024-02-04T05:11:38;9.80;99.90
563;DHT22;266;49.514;8.294;2024-02-04T05:14:07;9.80;99.90
563;DHT22;266;49.514;8.294;2024-02-04T05:16:35;9.80;99.90
563;DHT22;266;49.514;8.294;2024-02-04T05:19:03;9.80;99.90
563;DHT22;266;49.514;8.294;2024-02-04T05:21:31;9.80;99.90
563;DHT22;266;49.514;8.294;2024-02-04T05:23:59;9.80;99.90
563;DHT22;266;49.514;8.294;2024-02-04T05:26:27;9.80;99.90
563;DHT22;266;49.514;8.294;2024-02-04T05:28:55;9.80;99.90
563;DHT22;266;49.514;8.294;2024-02-04T05:31:24;9.80;99.90
563;DHT22;266;49.514;8.294;2024-02-04T05:33:52;9.80;99.90
563;DHT22;266;49.514;8.294;2024-02-04T05:36:20;9.80;99.90
563;DHT22;266;49.514;8.294;2024-02-04T05:38:48;9.80;99.90
563;DHT22;266;49.514;8.294;2024-02-04T05:41:16;9.70;99.90
563;DHT22;266;49.514;8.294;2024-02-04T05:43:44;9.70;99.90
563;DHT22;266;49.514;8.294;2024-02-04T05:46:13;9.70;99.90
563;DHT22;266;49.514;8.294;2024-02-04T05:48:43;9.70;99.90
563;DHT22;266;49.514;8.294;2024-02-04T05:51:12;9.70;99.90
563;DHT22;266;49.514;8.294;2024-02-04T05:53:40;9.70;99.90
563;DHT22;266;49.514;8.294;2024-02-04T05:56:08;9.70;99.90
563;DHT22;266;49.514;8.294;2024-02-04T05:58:36;9.70;99.90
563;DHT22;266;49.514;8.294;2024-02-04T06:01:04;9.80;99.90
563;DHT22;266;49.514;8.294;2024-02-04T06:03:32;9.70;99.90
563;DHT22;266;49.514;8.294;2024-02-04T06:06:02;9.70;99.90
563;DHT22;266;49.514;8.294;2024-02-04T06:08:31;9.70;99.90
563;DHT22;266;49.514;8.294;2024-02-04T06:10:59;9.70;99.90
563;DHT22;266;49.514;8.294;2024-02-04T06:13:27;9.70;99.90
563;DHT22;266;49.514;8.294;2024-02-04T06:15:54;9.80;99.90
563;DHT22;266;49.514;8.294;2024-02-04T06:18:23;9.70;99.90
563;DHT22;266;49.514;8.294;2024-02-04T06:20:51;9.70;99.90
563;DHT22;266;49.514;8.294;2024-02-04T06:23:20;9.70;99.90
563;DHT22;266;49.514;8.294;2024-02-04T06:25:48;9.70;99.90
563;DHT22;266;49.514;8.294;2024-02-04T06:28:16;9.70;99.90
563;DHT22;266;49.514;8.294;2024-02-04T06:30:44;9.70;99.90
563;DHT22;266;49.514;8.294;2024-02-04T06:33:12;9.70;99.90
563;DHT22;266;49.514;8.294;2024-02-04T06:35:40;9.70;99.90
563;DHT22;266;49.514;8.294;2024-02-04T06:38:08;9.70;99.90
563;DHT22;266;49.514;8.294;2024-02-04T06:40:38;9.70;99.90
563;DHT22;266;49.514;8.294;2024-02-04T06:43:06;9.70;99.90
563;DHT22;266;49.514;8.294;2024-02-04T06:45:34;9.70;99.90
563;DHT22;266;49.514;8.294;2024-02-04T06:48:02;9.70;99.90
563;DHT22;266;49.514;8.294;2024-02-04T06:50:30;9.70;99.90
563;DHT22;266;49.514;8.294;2024-02-04T06:52:58;9.80;99.90
563;DHT22;266;49.514;8.294;2024-02-04T06:55:26;9.70;99.90
563;DHT22;266;49.514;8.294;2024-02-04T06:57:56;9.70;99.90
563;DHT22;266;49.514;8.294;2024-02-04T07:00:24;9.70;99.90
563;DHT22;266;49.514;8.294;2024-02-04T07:02:52;9.70;99.90
563;DHT22;266;49.514;8.294;2024-02-04T07:05:20;9.70;99.90
563;DHT22;266;49.514;8.294;2024-02-04T07:07:49;9.70;99.90
563;DHT22;266;49.514;8.294;2024-02-04T07:10:18;9.70;99.90
563;DHT22;266;49.514;8.294;2024-02-04T07:12:46;9.60;99.90
563;DHT22;266;49.514;8.294;2024-02-04T07:15:16;9.60;99.90
563;DHT22;266;49.514;8.294;2024-02-04T07:17:44;9.60;99.90
563;DHT22;266;49.514;8.294;2024-02-04T07:20:12;9.70;99.90
563;DHT22;266;49.514;8.294;2024-02-04T07:22:40;9.70;99.90
563;DHT22;266;49.514;8.294;2024-02-04T07:25:10;9.70;99.90
563;DHT22;266;49.514;8.294;2024-02-04T07:27:38;9.70;99.90
563;DHT22;266;49.514;8.294;2024-02-04T07:30:07;9.70;99.90
563;DHT22;266;49.514;8.294;2024-02-04T07:32:36;9.70;99.90
563;DHT22;266;49.514;8.294;2024-02-04T07:35:05;9.70;99.90
563;DHT22;266;49.514;8.294;2024-02-04T07:37:36;9.80;99.90
563;DHT22;266;49.514;8.294;2024-02-04T07:40:05;9.80;99.90
563;DHT22;266;49.514;8.294;2024-02-04T07:42:33;9.90;99.90
563;DHT22;266;49.514;8.294;2024-02-04T07:45:01;9.90;99.90
563;DHT22;266;49.514;8.294;2024-02-04T07:47:36;9.90;99.90
563;DHT22;266;49.514;8.294;2024-02-04T07:50:08;9.90;99.90
563;DHT22;266;49.514;8.294;2024-02-04T07:52:36;9.90;99.90
563;DHT22;266;49.514;8.294;2024-02-04T07:55:08;9.90;99.90
563;DHT22;266;49.514;8.294;2024-02-04T07:57:36;10.00;99.90
563;DHT22;266;49.514;8.294;2024-02-04T08:00:06;10.00;99.90
563;DHT22;266;49.514;8.294;2024-02-04T08:02:38;10.00;99.90
563;DHT22;266;49.514;8.294;2024-02-04T08:05:06;10.00;99.90
563;DHT22;266;49.514;8.294;2024-02-04T08:07:34;10.00;99.90
563;DHT22;266;49.514;8.294;2024-02-04T08:10:03;10.00;99.90
563;DHT22;266;49.514;8.294;2024-02-04T08:12:32;10.00;99.90
563;DHT22;266;49.514;8.294;2024-02-04T08:15:00;10.00;99.90
563;DHT22;266;49.514;8.294;2024-02-04T08:17:28;10.00;99.90
563;DHT22;266;49.514;8.294;2024-02-04T08:19:59;10.00;99.90
563;DHT22;266;49.514;8.294;2024-02-04T08:22:27;10.10;99.90
563;DHT22;266;49.514;8.294;2024-02-04T08:24:55;10.20;99.90
563;DHT22;266;49.514;8.294;2024-02-04T08:27:23;10.20;99.90
563;DHT22;266;49.514;8.294;2024-02-04T08:29:51;10.20;99.90
563;DHT22;266;49.514;8.294;2024-02-04T08:32:19;10.20;99.90
563;DHT22;266;49.514;8.294;2024-02-04T08:34:47;10.30;99.90
563;DHT22;266;49.514;8.294;2024-02-04T08:37:16;10.30;99.90
563;DHT22;266;49.514;8.294;2024-02-04T08:39:46;10.30;99.90
563;DHT22;266;49.514;8.294;2024-02-04T08:42:15;10.30;99.90
563;DHT22;266;49.514;8.294;2024-02-04T08:44:43;10.30;99.90
563;DHT22;266;49.514;8.294;2024-02-04T08:47:11;10.30;99.90
563;DHT22;266;49.514;8.294;2024-02-04T08:49:41;10.40;99.90
563;DHT22;266;49.514;8.294;2024-02-04T08:52:09;10.40;99.90
563;DHT22;266;49.514;8.294;2024-02-04T08:54:39;10.50;99.90
563;DHT22;266;49.514;8.294;2024-02-04T08:57:07;10.50;99.90
563;DHT22;266;49.514;8.294;2024-02-04T08:59:35;10.50;99.90
563;DHT22;266;49.514;8.294;2024-02-04T09:02:03;10.60;99.90
563;DHT22;266;49.514;8.294;2024-02-04T09:04:38;10.70;99.90
563;DHT22;266;49.514;8.294;2024-02-04T09:07:08;10.70;99.90
563;DHT22;266;49.514;8.294;2024-02-04T09:09:37;10.80;99.90
563;DHT22;266;49.514;8.294;2024-02-04T09:12:09;10.90;99.90
563;DHT22;266;49.514;8.294;2024-02-04T09:14:37;10.90;99.90
563;DHT22;266;49.514;8.294;2024-02-04T09:17:05;10.90;99.90
563;DHT22;266;49.514;8.294;2024-02-04T09:19:33;10.90;99.90
563;DHT22;266;49.514;8.294;2024-02-04T09:22:05;10.90;99.90
563;DHT22;266;49.514;8.294;2024-02-04T09:24:33;10.90;99.90
563;DHT22;266;49.514;8.294;2024-02-04T09:27:01;10.90;99.90
563;DHT22;266;49.514;8.294;2024-02-04T09:29:31;10.90;99.90
563;DHT22;266;49.514;8.294;2024-02-04T09:31:59;10.90;99.90
563;DHT22;266;49.514;8.294;2024-02-04T09:34:27;10.90;99.90
563;DHT22;266;49.514;8.294;2024-02-04T09:36:55;10.90;99.90
563;DHT22;266;49.514;8.294;2024-02-04T09:39:23;10.90;99.90
563;DHT22;266;49.514;8.294;2024-02-04T09:41:52;11.00;99.90
563;DHT22;266;49.514;8.294;2024-02-04T09:44:22;11.00;99.90
563;DHT22;266;49.514;8.294;2024-02-04T09:46:52;11.10;99.90
563;DHT22;266;49.514;8.294;2024-02-04T09:49:21;11.10;99.90
563;DHT22;266;49.514;8.294;2024-02-04T09:51:50;11.10;99.90
563;DHT22;266;49.514;8.294;2024-02-04T09:54:18;11.10;99.90
563;DHT22;266;49.514;8.294;2024-02-04T09:56:49;11.10;99.90
563;DHT22;266;49.514;8.294;2024-02-04T09:59:18;11.00;99.90
563;DHT22;266;49.514;8.294;2024-02-04T10:01:46;11.20;99.90
563;DHT22;266;49.514;8.294;2024-02-04T10:04:16;11.40;99.90
563;DHT22;266;49.514;8.294;2024-02-04T10:06:44;11.50;99.90
563;DHT22;266;49.514;8.294;2024-02-04T10:09:13;11.70;99.90
563;DHT22;266;49.514;8.294;2024-02-04T10:11:41;11.90;99.90
563;DHT22;266;49.514;8.294;2024-02-04T10:14:09;12.00;99.90
563;DHT22;266;49.514;8.294;2024-02-04T10:16:37;11.90;99.90
563;DHT22;266;49.514;8.294;2024-02-04T10:19:05;11.90;99.90
563;DHT22;266;49.514;8.294;2024-02-04T10:21:35;12.00;99.90
563;DHT22;266;49.514;8.294;2024-02-04T10:24:03;11.90;99.90
563;DHT22;266;49.514;8.294;2024-02-04T10:26:31;11.60;99.90
563;DHT22;266;49.514;8.294;2024-02-04T10:29:01;11.50;99.90
563;DHT22;266;49.514;8.294;2024-02-04T10:31:29;11.60;99.90
563;DHT22;266;49.514;8.294;2024-02-04T10:33:57;11.60;99.90
563;DHT22;266;49.514;8.294;2024-02-04T10:36:25;11.70;99.90
563;DHT22;266;49.514;8.294;2024-02-04T10:38:55;11.90;99.90
563;DHT22;266;49.514;8.294;2024-02-04T10:41:24;12.00;99.90
563;DHT22;266;49.514;8.294;2024-02-04T10:43:53;12.20;99.90
563;DHT22;266;49.514;8.294;2024-02-04T10:46:23;12.40;99.90
563;DHT22;266;49.514;8.294;2024-02-04T10:49:00;12.40;99.90
563;DHT22;266;49.514;8.294;2024-02-04T10:51:31;12.30;99.90
563;DHT22;266;49.514;8.294;2024-02-04T10:54:02;12.30;99.90
563;DHT22;266;49.514;8.294;2024-02-04T10:56:34;12.40;99.90
563;DHT22;266;49.514;8.294;2024-02-04T10:59:04;12.40;99.90
563;DHT22;266;49.514;8.294;2024-02-04T11:01:34;12.40;99.90
563;DHT22;266;49.514;8.294;2024-02-04T11:04:04;12.30;99.90
563;DHT22;266;49.514;8.294;2024-02-04T11:06:34;12.10;99.90
563;DHT22;266;49.514;8.294;2024-02-04T11:09:05;12.10;99.90
563;DHT22;266;49.514;8.294;2024-02-04T11:11:34;12.10;99.90
563;DHT22;266;49.514;8.294;2024-02-04T11:14:04;12.10;99.90
563;DHT22;266;49.514;8.294;2024-02-04T11:16:51;12.10;99.90
563;DHT22;266;49.514;8.294;2024-02-04T11:19:31;12.10;99.90
563;DHT22;266;49.514;8.294;2024-02-04T11:22:29;11.90;99.90
563;DHT22;266;49.514;8.294;2024-02-04T11:25:23;12.00;99.90
563;DHT22;266;49.514;8.294;2024-02-04T11:27:56;12.10;99.90
563;DHT22;266;49.514;8.294;2024-02-04T11:30:25;12.10;99.90
563;DHT22;266;49.514;8.294;2024-02-04T11:32:53;12.10;99.90
563;DHT22;266;49.514;8.294;2024-02-04T11:35:21;12.00;99.90
563;DHT22;266;49.514;8.294;2024-02-04T11:37:50;11.90;99.90
563;DHT22;266;49.514;8.294;2024-02-04T11:40:21;11.90;99.90
563;DHT22;266;49.514;8.294;2024-02-04T11:42:50;11.80;99.90
563;DHT22;266;49.514;8.294;2024-02-04T11:45:18;11.70;99.90
563;DHT22;266;49.514;8.294;2024-02-04T11:47:46;11.60;99.90
563;DHT22;266;49.514;8.294;2024-02-04T11:50:28;11.60;99.90
563;DHT22;266;49.514;8.294;2024-02-04T11:53:02;11.50;99.90
563;DHT22;266;49.514;8.294;2024-02-04T11:55:34;11.60;99.90
563;DHT22;266;49.514;8.294;2024-02-04T11:58:05;11.90;99.90
563;DHT22;266;49.514;8.294;2024-02-04T12:00:34;12.00;99.90
563;DHT22;266;49.514;8.294;2024-02-04T12:03:02;12.10;99.90
563;DHT22;266;49.514;8.294;2024-02-04T12:05:31;11.90;99.90
563;DHT22;266;49.514;8.294;2024-02-04T12:08:01;11.80;99.90
563;DHT22;266;49.514;8.294;2024-02-04T12:10:30;11.80;99.90
563;DHT22;266;49.514;8.294;2024-02-04T12:13:02;11.90;99.90
563;DHT22;266;49.514;8.294;2024-02-04T12:15:31;12.00;99.90
563;DHT22;266;49.514;8.294;2024-02-04T12:18:06;12.00;99.90
563;DHT22;266;49.514;8.294;2024-02-04T12:20:34;12.00;99.90
563;DHT22;266;49.514;8.294;2024-02-04T12:23:03;12.00;99.90
563;DHT22;266;49.514;8.294;2024-02-04T12:25:31;12.00;99.90
563;DHT22;266;49.514;8.294;2024-02-04T12:28:02;12.10;99.90
563;DHT22;266;49.514;8.294;2024-02-04T12:30:32;12.00;99.90
563;DHT22;266;49.514;8.294;2024-02-04T12:33:02;11.90;99.90
563;DHT22;266;49.514;8.294;2024-02-04T12:35:31;11.90;99.90
563;DHT22;266;49.514;8.294;2024-02-04T12:38:00;11.90;99.90
563;DHT22;266;49.514;8.294;2024-02-04T12:40:30;11.80;99.90
563;DHT22;266;49.514;8.294;2024-02-04T12:42:59;11.80;99.90
563;DHT22;266;49.514;8.294;2024-02-04T12:45:33;11.80;99.90
563;DHT22;266;49.514;8.294;2024-02-04T12:48:02;11.70;99.90
563;DHT22;266;49.514;8.294;2024-02-04T12:50:30;11.70;99.90
563;DHT22;266;49.514;8.294;2024-02-04T12:53:03;11.70;99.90
563;DHT22;266;49.514;8.294;2024-02-04T12:55:33;11.70;99.90
563;DHT22;266;49.514;8.294;2024-02-04T12:58:02;11.70;99.90
563;DHT22;266;49.514;8.294;2024-02-04T13:00:32;11.60;99.90
563;DHT22;266;49.514;8.294;2024-02-04T13:03:01;11.70;99.90
563;DHT22;266;49.514;8.294;2024-02-04T13:05:30;11.60;99.90
563;DHT22;266;49.514;8.294;2024-02-04T13:07:58;11.60;99.90
563;DHT22;266;49.514;8.294;2024-02-04T13:10:30;11.50;99.90
563;DHT22;266;49.514;8.294;2024-02-04T13:12:59;11.50;99.90
563;DHT22;266;49.514;8.294;2024-02-04T13:15:28;11.50;99.90
563;DHT22;266;49.514;8.294;2024-02-04T13:17:58;11.40;99.90
563;DHT22;266;49.514;8.294;2024-02-04T13:20:26;11.40;99.90
563;DHT22;266;49.514;8.294;2024-02-04T13:22:57;11.50;99.90
563;DHT22;266;49.514;8.294;2024-02-04T13:25:27;11.50;99.90
563;DHT22;266;49.514;8.294;2024-02-04T13:27:55;11.50;99.90
563;DHT22;266;49.514;8.294;2024-02-04T13:30:24;11.50;99.90
563;DHT22;266;49.514;8.294;2024-02-04T13:32:52;11.50;99.90
563;DHT22;266;49.514;8.294;2024-02-04T13:35:23;11.50;99.90
563;DHT22;266;49.514;8.294;2024-02-04T13:37:52;11.50;99.90
563;DHT22;266;49.514;8.294;2024-02-04T13:40:21;11.50;99.90
563;DHT22;266;49.514;8.294;2024-02-04T13:42:50;11.50;99.90
563;DHT22;266;49.514;8.294;2024-02-04T13:45:18;11.50;99.90
563;DHT22;266;49.514;8.294;2024-02-04T13:47:47;11.50;99.90
563;DHT22;266;49.514;8.294;2024-02-04T13:50:15;11.50;99.90
563;DHT22;266;49.514;8.294;2024-02-04T13:52:45;11.40;99.90
563;DHT22;266;49.514;8.294;2024-02-04T13:55:13;11.50;99.90
563;DHT22;266;49.514;8.294;2024-02-04T13:57:42;11.50;99.90
563;DHT22;266;49.514;8.294;2024-02-04T14:00:11;11.40;99.90
563;DHT22;266;49.514;8.294;2024-02-04T14:02:39;11.40;99.90
563;DHT22;266;49.514;8.294;2024-02-04T14:05:08;11.40;99.90
563;DHT22;266;49.514;8.294;2024-02-04T14:07:37;11.40;99.90
563;DHT22;266;49.514;8.294;2024-02-04T14:10:08;11.40;99.90
563;DHT22;266;49.514;8.294;2024-02-04T14:12:38;11.40;99.90
563;DHT22;266;49.514;8.294;2024-02-04T14:15:09;11.40;99.90
563;DHT22;266;49.514;8.294;2024-02-04T14:17:37;11.40;99.90
563;DHT22;266;49.514;8.294;2024-02-04T14:20:06;11.40;99.90
563;DHT22;266;49.514;8.294;2024-02-04T14:22:35;11.40;99.90
563;DHT22;266;49.514;8.294;2024-02-04T14:25:04;11.30;99.90
563;DHT22;266;49.514;8.294;2024-02-04T14:27:34;11.30;99.90
563;DHT22;266;49.514;8.294;2024-02-04T14:30:04;11.30;99.90
563;DHT22;266;49.514;8.294;2024-02-04T14:32:33;11.30;99.90
563;DHT22;266;49.514;8.294;2024-02-04T14:35:02;11.30;99.90
563;DHT22;266;49.514;8.294;2024-02-04T14:37:31;11.30;99.90
563;DHT22;266;49.514;8.294;2024-02-04T14:39:59;11.30;99.90
563;DHT22;266;49.514;8.294;2024-02-04T14:42:27;11.30;99.90
563;DHT22;266;49.514;8.294;2024-02-04T14:44:57;11.20;99.90
563;DHT22;266;49.514;8.294;2024-02-04T14:47:26;11.20;99.90
563;DHT22;266;49.514;8.294;2024-02-04T14:49:55;11.20;99.90
563;DHT22;266;49.514;8.294;2024-02-04T14:52:23;11.20;99.90
563;DHT22;266;49.514;8.294;2024-02-04T14:54:51;11.20;99.90
563;DHT22;266;49.514;8.294;2024-02-04T14:57:19;11.20;99.90
563;DHT22;266;49.514;8.294;2024-02-04T14:59:47;11.20;99.90
563;DHT22;266;49.514;8.294;2024-02-04T15:02:17;11.20;99.90
563;DHT22;266;49.514;8.294;2024-02-04T15:04:45;11.30;99.90
563;DHT22;266;49.514;8.294;2024-02-04T15:07:13;11.20;99.90
563;DHT22;266;49.514;8.294;2024-02-04T15:09:41;11.10;99.90
563;DHT22;266;49.514;8.294;2024-02-04T15:12:10;11.10;99.90
563;DHT22;266;49.514;8.294;2024-02-04T15:14:41;11.10;99.90
563;DHT22;266;49.514;8.294;2024-02-04T15:17:10;11.10;99.90
563;DHT22;266;49.514;8.294;2024-02-04T15:19:40;11.10;99.90
563;DHT22;266;49.514;8.294;2024-02-04T15:22:09;11.10;99.90
563;DHT22;266;49.514;8.294;2024-02-04T15:24:37;11.10;99.90
563;DHT22;266;49.514;8.294;2024-02-04T15:27:06;11.10;99.90
563;DHT22;266;49.514;8.294;2024-02-04T15:29:36;11.10;99.90
563;DHT22;266;49.514;8.294;2024-02-04T15:32:06;11.10;99.90
563;DHT22;266;49.514;8.294;2024-02-04T15:34:34;11.10;99.90
563;DHT22;266;49.514;8.294;2024-02-04T15:37:04;11.10;99.90
563;DHT22;266;49.514;8.294;2024-02-04T15:39:33;11.10;99.90
563;DHT22;266;49.514;8.294;2024-02-04T15:42:01;11.10;99.90
563;DHT22;266;49.514;8.294;2024-02-04T15:44:30;11.10;99.90
563;DHT22;266;49.514;8.294;2024-02-04T15:47:01;11.10;99.90
563;DHT22;266;49.514;8.294;2024-02-04T15:49:30;11.00;99.90
563;DHT22;266;49.514;8.294;2024-02-04T15:51:58;11.00;99.90
563;DHT22;266;49.514;8.294;2024-02-04T15:54:28;11.00;99.90
563;DHT22;266;49.514;8.294;2024-02-04T15:57:01;11.00;99.90
563;DHT22;266;49.514;8.294;2024-02-04T15:59:38;11.00;99.90
563;DHT22;266;49.514;8.294;2024-02-04T16:02:11;11.00;99.90
563;DHT22;266;49.514;8.294;2024-02-04T16:04:39;11.00;99.90
563;DHT22;266;49.514;8.294;2024-02-04T16:07:08;10.90;99.90
563;DHT22;266;49.514;8.294;2024-02-04T16:09:39;10.90;99.90
563;DHT22;266;49.514;8.294;2024-02-04T16:12:17;10.90;99.90
563;DHT22;266;49.514;8.294;2024-02-04T16:14:45;10.90;99.90
563;DHT22;266;49.514;8.294;2024-02-04T16:17:16;10.90;99.90
563;DHT22;266;49.514;8.294;2024-02-04T16:19:45;10.90;99.90
563;DHT22;266;49.514;8.294;2024-02-04T16:22:15;10.90;99.90
563;DHT22;266;49.514;8.294;2024-02-04T16:24:45;10.90;99.90
563;DHT22;266;49.514;8.294;2024-02-04T16:27:13;11.00;99.90
563;DHT22;266;49.514;8.294;2024-02-04T16:29:41;11.00;99.90
563;DHT22;266;49.514;8.294;2024-02-04T16:32:10;10.90;99.90
563;DHT22;266;49.514;8.294;2024-02-04T16:34:38;10.90;99.90
563;DHT22;266;49.514;8.294;2024-02-04T16:37:07;10.90;99.90
563;DHT22;266;49.514;8.294;2024-02-04T16:39:36;11.00;99.90
563;DHT22;266;49.514;8.294;2024-02-04T16:42:06;11.00;99.90
563;DHT22;266;49.514;8.294;2024-02-04T16:44:35;11.00;99.90
563;DHT22;266;49.514;8.294;2024-02-04T16:47:03;11.00;99.90
563;DHT22;266;49.514;8.294;2024-02-04T16:49:31;10.90;99.90
563;DHT22;266;49.514;8.294;2024-02-04T16:52:00;10.90;99.90